Time;durP1;ratioP1;P1;durP2;ratioP2;P2;SDS_P1;SDS_P2;PMS_P1;PMS_P2;Temp;Humidity;BMP_temperature;BMP_pressure;BME280_temperature;BME280_humidity;BME280_pressure;Samples;Min_cycle;Max_cycle;Signal;HPM_P1;HPM_P2
2021/06/24 00:00:41;;;;;;;;;;;;;;;22.56;47.85;102042.66;2198980;39;115723;-53
2021/06/24 00:02:14;;;;;;;;;;;;;;;22.56;47.72;102039.00;2193681;39;114418;-55
2021/06/24 00:03:46;;;;;;;;;;;;;;;22.55;47.72;102040.97;2193231;39;115876;-54
2021/06/24 00:05:17;;;;;;;;;;;;;;;22.54;47.68;102041.25;2195479;39;115556;-53
2021/06/24 00:06:49;;;;;;;;;;;;;;;22.55;47.65;102043.81;2192022;39;115594;-53
2021/06/24 00:08:21;;;;;;;;;;;;;;;22.53;47.95;102042.44;2196966;39;115579;-53
2021/06/24 00:09:53;;;;;;;;;;;;;;;22.55;47.78;102040.97;2190605;39;113893;-53
2021/06/24 00:11:25;;;;;;;;;;;;;;;22.53;47.96;102028.34;2187833;39;113832;-53
2021/06/24 00:12:57;;;;;;;;;;;;;;;22.52;48.07;102035.09;2196759;39;113823;-53
2021/06/24 00:14:28;;;;;;;;;;;;;;;22.52;47.79;102038.78;2197741;39;114121;-53
2021/06/24 00:16:00;;;;;;;;;;;;;;;22.52;47.70;102032.28;2190551;39;117025;-53
2021/06/24 00:17:32;;;;;;;;;;;;;;;22.52;48.00;102035.09;2196755;39;113646;-53
2021/06/24 00:19:04;;;;;;;;;;;;;;;22.52;48.09;102029.47;2197088;39;114101;-53
2021/06/24 00:20:36;;;;;;;;;;;;;;;22.53;47.68;102031.16;2185890;39;114159;-54
2021/06/24 00:22:08;;;;;;;;;;;;;;;22.49;47.87;102030.88;2187945;39;113804;-54
2021/06/24 00:23:39;;;;;;;;;;;;;;;22.50;47.87;102029.75;2189589;39;114184;-53
2021/06/24 00:25:11;;;;;;;;;;;;;;;22.49;48.07;102030.88;2195394;39;113784;-54
2021/06/24 00:26:43;;;;;;;;;;;;;;;22.48;47.79;102029.22;2191769;39;113958;-53
2021/06/24 00:28:16;;;;;;;;;;;;;;;22.48;48.02;102017.13;2191211;39;113706;-53
2021/06/24 00:29:47;;;;;;;;;;;;;;;22.48;47.95;102023.59;2187504;39;113827;-53
2021/06/24 00:31:19;;;;;;;;;;;;;;;22.46;47.90;102020.22;2195403;39;114780;-53
2021/06/24 00:32:51;;;;;;;;;;;;;;;22.46;47.91;102031.50;2196587;39;114977;-54
2021/06/24 00:34:23;;;;;;;;;;;;;;;22.46;47.81;102022.19;2191910;39;113910;-53
2021/06/24 00:35:55;;;;;;;;;;;;;;;22.45;48.03;102035.44;2184710;39;114783;-53
2021/06/24 00:37:27;;;;;;;;;;;;;;;22.43;47.95;102029.28;2187047;39;115448;-52
2021/06/24 00:39:00;;;;;;;;;;;;;;;22.45;47.93;102032.63;2193327;39;114816;-53
2021/06/24 00:40:34;;;;;;;;;;;;;;;22.45;47.81;102029.81;2197293;39;114943;-53
2021/06/24 00:42:06;;;;;;;;;;;;;;;22.43;47.77;102034.06;2197026;39;115398;-56
2021/06/24 00:43:37;;;;;;;;;;;;;;;22.43;47.94;102031.25;2196764;39;114922;-53
2021/06/24 00:45:10;;;;;;;;;;;;;;;22.42;47.72;102040.81;2198659;39;114940;-53
2021/06/24 00:46:42;;;;;;;;;;;;;;;22.42;47.98;102033.22;2183279;39;114746;-53
2021/06/24 00:48:14;;;;;;;;;;;;;;;22.41;47.91;102034.34;2196582;39;115193;-53
2021/06/24 00:49:46;;;;;;;;;;;;;;;22.42;47.76;102036.03;2198691;39;114567;-53
2021/06/24 00:51:17;;;;;;;;;;;;;;;22.40;47.81;102029.84;2196980;39;115370;-54
2021/06/24 00:52:49;;;;;;;;;;;;;;;22.40;47.70;102031.81;2196365;39;115859;-53
2021/06/24 00:54:21;;;;;;;;;;;;;;;22.39;47.70;102036.63;2189765;39;115933;-53
2021/06/24 00:55:54;;;;;;;;;;;;;;;22.39;47.59;102036.63;2195352;39;115934;-53
2021/06/24 00:57:26;;;;;;;;;;;;;;;22.38;47.67;102032.13;2187056;39;115443;-53
2021/06/24 00:59:00;;;;;;;;;;;;;;;22.38;47.63;102039.72;2187366;39;115680;-53
2021/06/24 01:00:32;;;;;;;;;;;;;;;22.36;47.59;102030.72;2191411;39;115850;-53
2021/06/24 01:02:05;;;;;;;;;;;;;;;22.37;47.88;102030.44;2191540;39;116175;-53
2021/06/24 01:03:37;;;;;;;;;;;;;;;22.34;47.44;102047.94;2188987;39;115501;-53
2021/06/24 01:05:09;;;;;;;;;;;;;;;22.34;47.81;102039.50;2192694;39;115739;-54
2021/06/24 01:06:40;;;;;;;;;;;;;;;22.36;47.44;102048.47;2198324;39;116095;-54
2021/06/24 01:08:15;;;;;;;;;;;;;;;22.34;47.62;102036.66;2199956;39;115844;-53
2021/06/24 01:09:46;;;;;;;;;;;;;;;22.34;47.89;102047.09;2190505;39;114559;-53
2021/06/24 01:11:19;;;;;;;;;;;;;;;22.34;47.76;102042.31;2196534;39;115705;-54
2021/06/24 01:12:51;;;;;;;;;;;;;;;22.34;47.85;102038.66;2197259;39;114598;-53
2021/06/24 01:14:23;;;;;;;;;;;;;;;22.34;47.77;102050.75;2199341;39;115639;-53
2021/06/24 01:15:55;;;;;;;;;;;;;;;22.34;47.72;102053.56;2190157;39;114373;-54
2021/06/24 01:17:26;;;;;;;;;;;;;;;22.35;47.75;102054.41;2195282;39;114253;-54
2021/06/24 01:18:58;;;;;;;;;;;;;;;22.34;47.97;102053.56;2197246;39;113612;-52
2021/06/24 01:20:32;;;;;;;;;;;;;;;22.33;47.67;102049.06;2197583;39;113926;-53
2021/06/24 01:22:04;;;;;;;;;;;;;;;22.33;47.99;102051.88;2186874;39;113894;-54
2021/06/24 01:23:37;;;;;;;;;;;;;;;22.33;48.06;102051.03;2185274;39;113701;-54
2021/06/24 01:25:11;;;;;;;;;;;;;;;22.33;48.02;102043.44;2195652;39;113763;-54
2021/06/24 01:26:43;;;;;;;;;;;;;;;22.32;48.15;102052.16;2198860;39;113784;-53
2021/06/24 01:28:14;;;;;;;;;;;;;;;22.34;48.19;102045.13;2187100;39;114294;-53
2021/06/24 01:29:46;;;;;;;;;;;;;;;22.33;47.88;102046.25;2192428;39;113975;-53
2021/06/24 01:31:19;;;;;;;;;;;;;;;22.32;47.85;102050.19;2197568;39;113755;-53
2021/06/24 01:32:51;;;;;;;;;;;;;;;22.31;47.88;102045.69;2191529;39;117174;-53
2021/06/24 01:34:22;;;;;;;;;;;;;;;22.31;48.00;102051.31;2190128;39;113961;-53
2021/06/24 01:35:56;;;;;;;;;;;;;;;22.29;47.77;102047.97;2184988;39;113899;-53
2021/06/24 01:37:28;;;;;;;;;;;;;;;22.30;47.66;102055.28;2192646;39;114819;-53
2021/06/24 01:38:59;;;;;;;;;;;;;;;22.29;47.89;102041.50;2197123;39;114800;-53
2021/06/24 01:40:31;;;;;;;;;;;;;;;22.28;47.58;102051.06;2198514;39;115081;-54
2021/06/24 01:42:03;;;;;;;;;;;;;;;22.29;47.64;102052.75;2197833;39;117081;-52
2021/06/24 01:43:35;;;;;;;;;;;;;;;22.26;47.54;102056.16;2192399;39;114997;-53
2021/06/24 01:45:09;;;;;;;;;;;;;;;22.25;47.78;102057.31;2185482;39;115433;-53
2021/06/24 01:46:41;;;;;;;;;;;;;;;22.23;47.60;102057.59;2193948;39;114766;-53
2021/06/24 01:48:13;;;;;;;;;;;;;;;22.24;47.74;102052.78;2199271;39;114905;-53
2021/06/24 01:49:44;;;;;;;;;;;;;;;22.22;47.62;102052.22;2199409;39;115086;-53
2021/06/24 01:51:16;;;;;;;;;;;;;;;22.22;47.76;102057.88;2198696;39;114959;-53
2021/06/24 01:52:48;;;;;;;;;;;;;;;22.23;47.67;102054.78;2190040;39;114901;-53
2021/06/24 01:54:21;;;;;;;;;;;;;;;22.24;47.68;102047.16;2193931;39;114912;-53
2021/06/24 01:55:53;;;;;;;;;;;;;;;22.23;47.64;102046.31;2190025;39;115300;-53
2021/06/24 01:57:25;;;;;;;;;;;;;;;22.25;47.76;102038.44;2191727;39;115157;-53
2021/06/24 01:58:56;;;;;;;;;;;;;;;22.24;48.13;102044.34;2190239;39;116273;-53
2021/06/24 02:00:28;;;;;;;;;;;;;;;22.22;47.60;102047.44;2197139;39;115936;-53
2021/06/24 02:02:01;;;;;;;;;;;;;;;22.22;47.62;102043.78;2199486;39;115423;-53
2021/06/24 02:03:34;;;;;;;;;;;;;;;22.22;47.83;102041.81;2187628;39;115863;-53
2021/06/24 02:05:06;;;;;;;;;;;;;;;22.23;47.62;102042.66;2192854;39;115737;-53
2021/06/24 02:06:38;;;;;;;;;;;;;;;22.21;47.74;102033.69;2198410;39;115593;-53
2021/06/24 02:08:15;;;;;;;;;;;;;;;22.20;47.58;102038.47;2199246;39;115758;-53
2021/06/24 02:09:46;;;;;;;;;;;;;;;22.20;47.77;102040.44;2203363;39;115712;-53
2021/06/24 02:11:18;;;;;;;;;;;;;;;22.18;47.74;102041.56;2199096;39;115223;-53
2021/06/24 02:12:49;;;;;;;;;;;;;;;22.18;47.89;102035.94;2204539;39;115094;-53
2021/06/24 02:14:21;;;;;;;;;;;;;;;22.20;47.79;102034.81;2198444;39;116096;-54
2021/06/24 02:15:53;;;;;;;;;;;;;;;22.18;47.65;102030.31;2186875;39;115757;-53
2021/06/24 02:17:25;;;;;;;;;;;;;;;22.17;47.60;102034.25;2190663;39;115645;-53
2021/06/24 02:18:57;;;;;;;;;;;;;;;22.17;47.68;102031.44;2189296;39;115580;-53
2021/06/24 02:20:29;;;;;;;;;;;;;;;22.16;47.56;102032.59;2194152;39;113750;-53
2021/06/24 02:22:01;;;;;;;;;;;;;;;22.16;47.45;102032.59;2189401;39;113578;-53
2021/06/24 02:23:33;;;;;;;;;;;;;;;22.16;47.49;102037.38;2193158;39;113749;-53
2021/06/24 02:25:05;;;;;;;;;;;;;;;22.15;47.06;102035.69;2196456;39;113783;-53
2021/06/24 02:26:37;;;;;;;;;;;;;;;22.14;47.38;102031.19;2203479;39;114174;-56
2021/06/24 02:28:09;;;;;;;;;;;;;;;22.14;47.32;102043.28;2185604;39;113925;-53
2021/06/24 02:29:40;;;;;;;;;;;;;;;22.14;47.48;102042.44;2194999;39;113955;-53
2021/06/24 02:31:12;;;;;;;;;;;;;;;22.14;47.55;102034.00;2191945;39;113786;-53
2021/06/24 02:32:44;;;;;;;;;;;;;;;22.12;47.42;102034.28;2194829;39;114017;-53
2021/06/24 02:34:16;;;;;;;;;;;;;;;22.13;47.90;102029.50;2198804;39;113997;-53
2021/06/24 02:35:54;;;;;;;;;;;;;;;22.12;47.98;102031.47;2199042;39;113767;-53
2021/06/24 02:37:26;;;;;;;;;;;;;;;22.15;47.87;102021.63;2191085;39;113881;-53
2021/06/24 02:38:58;;;;;;;;;;;;;;;22.14;47.76;102022.75;2196663;39;114348;-54
2021/06/24 02:40:29;;;;;;;;;;;;;;;22.17;47.80;102028.63;2192928;39;114032;-55
2021/06/24 02:42:03;;;;;;;;;;;;;;;22.12;47.48;102027.84;2198791;39;113701;-53
2021/06/24 02:43:34;;;;;;;;;;;;;;;22.11;47.57;102037.41;2193196;39;114737;-53
2021/06/24 02:45:07;;;;;;;;;;;;;;;22.10;47.27;102036.56;2189580;39;115170;-53
2021/06/24 02:46:39;;;;;;;;;;;;;;;22.07;47.34;102028.72;2189790;39;115229;-53
2021/06/24 02:48:11;;;;;;;;;;;;;;;22.09;47.27;102031.22;2196299;39;114946;-53
2021/06/24 02:49:43;;;;;;;;;;;;;;;22.09;47.51;102036.84;2188733;39;115167;-53
2021/06/24 02:51:15;;;;;;;;;;;;;;;22.09;47.44;102032.06;2195277;39;114081;-53
2021/06/24 02:52:46;;;;;;;;;;;;;;;22.07;47.58;102036.31;2191670;39;115056;-54
2021/06/24 02:54:18;;;;;;;;;;;;;;;22.07;47.50;102033.50;2196363;39;115061;-53
2021/06/24 02:55:50;;;;;;;;;;;;;;;22.06;47.64;102035.47;2185644;39;115177;-53
2021/06/24 02:57:22;;;;;;;;;;;;;;;22.05;47.38;102030.13;2191777;39;114805;-54
2021/06/24 02:58:53;;;;;;;;;;;;;;;22.04;47.14;102034.06;2199077;39;114899;-53
2021/06/24 03:00:26;;;;;;;;;;;;;;;22.04;47.52;102028.44;2192021;39;114820;-54
2021/06/24 03:01:58;;;;;;;;;;;;;;;22.04;47.29;102037.72;2191428;39;115341;-54
2021/06/24 03:03:30;;;;;;;;;;;;;;;22.04;47.33;102036.88;2199119;39;115031;-53
2021/06/24 03:05:03;;;;;;;;;;;;;;;22.03;47.54;102036.03;2197467;39;115762;-53
2021/06/24 03:06:35;;;;;;;;;;;;;;;22.03;47.76;102030.41;2191878;39;115840;-54
2021/06/24 03:08:07;;;;;;;;;;;;;;;22.03;47.51;102035.22;2190505;39;115878;-54
2021/06/24 03:09:39;;;;;;;;;;;;;;;22.02;47.86;102041.97;2186757;39;115513;-53
2021/06/24 03:11:10;;;;;;;;;;;;;;;22.01;47.89;102043.09;2189972;39;114844;-53
2021/06/24 03:12:42;;;;;;;;;;;;;;;22.01;47.64;102040.28;2196328;39;115387;-53
2021/06/24 03:14:14;;;;;;;;;;;;;;;22.01;47.71;102035.50;2194754;39;114543;-53
2021/06/24 03:15:46;;;;;;;;;;;;;;;21.98;47.51;102032.44;2191609;39;115774;-53
2021/06/24 03:17:17;;;;;;;;;;;;;;;21.98;47.62;102030.47;2191647;39;115807;-53
2021/06/24 03:18:53;;;;;;;;;;;;;;;21.98;47.73;102032.44;2196660;39;115658;-53
2021/06/24 03:20:28;;;;;;;;;;;;;;;21.97;47.64;102036.38;2190912;39;115935;-53
2021/06/24 03:22:00;;;;;;;;;;;;;;;21.98;47.79;102035.25;2190114;39;115751;-53
2021/06/24 03:23:32;;;;;;;;;;;;;;;21.96;47.53;102029.91;2194938;39;115563;-53
2021/06/24 03:25:05;;;;;;;;;;;;;;;21.96;47.64;102032.72;2201069;39;115063;-54
2021/06/24 03:26:37;;;;;;;;;;;;;;;21.96;47.38;102029.91;2190174;39;114125;-53
2021/06/24 03:28:09;;;;;;;;;;;;;;;21.96;47.34;102031.88;2191229;39;114171;-53
2021/06/24 03:29:40;;;;;;;;;;;;;;;21.95;47.56;102025.41;2188103;39;113882;-55
2021/06/24 03:31:13;;;;;;;;;;;;;;;21.95;47.50;102030.19;2192095;39;113813;-52
2021/06/24 03:32:44;;;;;;;;;;;;;;;21.93;47.61;102024.03;2196591;39;113628;-54
2021/06/24 03:34:16;;;;;;;;;;;;;;;21.94;47.46;102029.34;2188585;39;113924;-53
2021/06/24 03:35:50;;;;;;;;;;;;;;;21.94;47.86;102023.72;2193167;39;114416;-53
2021/06/24 03:37:22;;;;;;;;;;;;;;;21.92;47.67;102028.78;2190880;39;113985;-53
2021/06/24 03:38:53;;;;;;;;;;;;;;;21.93;47.89;102026.84;2192445;39;113862;-53
2021/06/24 03:40:25;;;;;;;;;;;;;;;21.92;47.81;102025.97;2199326;39;114088;-54
2021/06/24 03:41:57;;;;;;;;;;;;;;;21.92;47.85;102022.31;2194595;39;113688;-53
2021/06/24 03:43:29;;;;;;;;;;;;;;;21.92;47.92;102019.50;2196507;39;113706;-53
2021/06/24 03:45:02;;;;;;;;;;;;;;;21.90;47.90;102018.94;2197105;39;113655;-54
2021/06/24 03:46:34;;;;;;;;;;;;;;;21.89;47.85;102020.94;2199320;39;113778;-53
2021/06/24 03:48:07;;;;;;;;;;;;;;;21.87;47.94;102014.75;2198520;39;115246;-54
2021/06/24 03:49:38;;;;;;;;;;;;;;;21.87;47.85;102016.72;2199541;39;115690;-53
2021/06/24 03:51:10;;;;;;;;;;;;;;;21.88;48.00;102013.63;2197682;39;115005;-53
2021/06/24 03:52:42;;;;;;;;;;;;;;;21.88;47.91;102012.78;2197485;39;114869;-53
2021/06/24 03:54:13;;;;;;;;;;;;;;;21.87;47.79;102011.09;2197863;39;115012;-53
2021/06/24 03:55:45;;;;;;;;;;;;;;;21.86;47.79;102017.84;2201239;39;114966;-53
2021/06/24 03:57:17;;;;;;;;;;;;;;;21.86;47.95;102015.03;2183654;39;114837;-54
2021/06/24 03:58:49;;;;;;;;;;;;;;;21.87;47.93;102019.53;2194364;39;115057;-54
2021/06/24 04:00:20;;;;;;;;;;;;;;;21.85;48.17;102014.19;2196834;39;115017;-53
2021/06/24 04:01:52;;;;;;;;;;;;;;;21.85;48.02;102016.19;2188785;39;113999;-54
2021/06/24 04:03:24;;;;;;;;;;;;;;;21.84;47.90;102017.31;2193984;39;116625;-53
2021/06/24 04:04:55;;;;;;;;;;;;;;;21.82;48.03;102020.41;2196460;39;115380;-54
2021/06/24 04:06:28;;;;;;;;;;;;;;;21.83;48.38;102022.09;2197490;39;114983;-53
2021/06/24 04:08:00;;;;;;;;;;;;;;;21.83;48.15;102018.44;2191858;39;114311;-53
2021/06/24 04:09:32;;;;;;;;;;;;;;;21.82;48.04;102006.34;2188834;39;115699;-53
2021/06/24 04:11:04;;;;;;;;;;;;;;;21.82;48.11;102002.69;2196261;39;115728;-53
2021/06/24 04:12:40;;;;;;;;;;;;;;;21.81;48.44;102004.66;2197794;39;115660;-53
2021/06/24 04:14:11;;;;;;;;;;;;;;;21.82;48.42;102008.31;2198284;39;115527;-54
2021/06/24 04:15:43;;;;;;;;;;;;;;;21.81;48.63;102006.63;2197492;39;115962;-53
2021/06/24 04:17:15;;;;;;;;;;;;;;;21.80;48.16;102005.81;2197286;39;114819;-53
2021/06/24 04:18:47;;;;;;;;;;;;;;;21.80;48.45;102010.59;2192530;39;115694;-54
2021/06/24 04:20:19;;;;;;;;;;;;;;;21.80;48.38;102013.41;2195989;39;116275;-53
2021/06/24 04:21:51;;;;;;;;;;;;;;;21.79;48.43;102009.75;2191154;39;115727;-53
2021/06/24 04:23:23;;;;;;;;;;;;;;;21.79;48.51;102004.13;2192233;39;115733;-53
2021/06/24 04:24:54;;;;;;;;;;;;;;;21.78;48.29;102008.06;2192686;39;115019;-54
2021/06/24 04:26:26;;;;;;;;;;;;;;;21.76;48.37;102006.69;2195891;39;115635;-53
2021/06/24 04:28:00;;;;;;;;;;;;;;;21.79;48.55;102011.72;2192484;39;116141;-53
2021/06/24 04:29:31;;;;;;;;;;;;;;;21.79;48.52;102014.53;2194141;39;115760;-53
2021/06/24 04:31:03;;;;;;;;;;;;;;;21.78;48.38;102016.50;2188095;39;115729;-54
2021/06/24 04:32:35;;;;;;;;;;;;;;;21.78;48.47;102019.31;2194241;39;113787;-54
2021/06/24 04:34:07;;;;;;;;;;;;;;;21.76;48.64;102018.75;2190693;39;115062;-53
2021/06/24 04:35:38;;;;;;;;;;;;;;;21.76;48.83;102017.94;2195981;39;113937;-53
2021/06/24 04:37:10;;;;;;;;;;;;;;;21.76;48.51;102015.94;2191294;39;114096;-53
2021/06/24 04:38:42;;;;;;;;;;;;;;;21.78;48.16;102016.50;2189920;39;113697;-53
2021/06/24 04:40:14;;;;;;;;;;;;;;;21.76;48.60;102020.75;2196286;39;113794;-53
2021/06/24 04:41:45;;;;;;;;;;;;;;;21.76;48.42;102021.56;2190324;39;113883;-53
2021/06/24 04:43:17;;;;;;;;;;;;;;;21.76;48.37;102023.56;2195690;39;113815;-54
2021/06/24 04:44:49;;;;;;;;;;;;;;;21.76;48.52;102017.94;2197874;39;113686;-53
2021/06/24 04:46:20;;;;;;;;;;;;;;;21.74;48.70;102012.59;2196440;39;114087;-55
2021/06/24 04:47:53;;;;;;;;;;;;;;;21.74;48.71;102018.22;2200269;39;113746;-52
2021/06/24 04:49:25;;;;;;;;;;;;;;;21.73;48.51;102010.91;2191584;39;113693;-55
2021/06/24 04:50:56;;;;;;;;;;;;;;;21.71;48.30;102011.19;2185729;39;113611;-54
2021/06/24 04:52:28;;;;;;;;;;;;;;;21.71;48.69;102011.19;2192528;39;113956;-53
2021/06/24 04:54:01;;;;;;;;;;;;;;;21.71;48.69;102010.38;2193385;39;115390;-53
2021/06/24 04:55:41;;;;;;;;;;;;;;;21.72;48.91;102018.50;2199082;39;114788;-53
2021/06/24 04:57:13;;;;;;;;;;;;;;;21.69;48.59;102021.91;2191779;39;114930;-53
2021/06/24 04:58:45;;;;;;;;;;;;;;;21.71;48.92;102016.00;2202773;39;114976;-53
2021/06/24 05:00:16;;;;;;;;;;;;;;;21.71;48.65;102018.81;2192305;39;114243;-54
2021/06/24 05:01:48;;;;;;;;;;;;;;;21.70;48.71;102011.50;2189689;39;114667;-53
2021/06/24 05:03:20;;;;;;;;;;;;;;;21.69;48.56;102013.47;2196602;39;115069;-53
2021/06/24 05:04:52;;;;;;;;;;;;;;;21.71;48.86;102016.81;2191723;39;114840;-53
2021/06/24 05:06:24;;;;;;;;;;;;;;;21.71;49.04;102025.25;2189775;39;115803;-53
2021/06/24 05:07:55;;;;;;;;;;;;;;;21.72;48.71;102021.31;2188422;39;115790;-53
2021/06/24 05:09:29;;;;;;;;;;;;;;;21.70;48.86;102028.38;2197007;39;115066;-54
2021/06/24 05:11:01;;;;;;;;;;;;;;;21.71;49.07;102028.06;2191128;39;114710;-53
2021/06/24 05:12:32;;;;;;;;;;;;;;;21.73;49.43;102027.78;2194623;39;114843;-55
2021/06/24 05:14:04;;;;;;;;;;;;;;;21.74;49.75;102027.50;2193479;39;115055;-53
2021/06/24 05:15:36;;;;;;;;;;;;;;;21.76;49.64;102030.00;2196018;39;116338;-54
2021/06/24 05:17:11;;;;;;;;;;;;;;;21.79;50.01;102037.88;2190325;39;115552;-53
2021/06/24 05:18:43;;;;;;;;;;;;;;;21.80;49.85;102033.09;2196636;39;116134;-53
2021/06/24 05:20:16;;;;;;;;;;;;;;;21.82;50.53;102040.09;2193543;39;115667;-53
2021/06/24 05:21:47;;;;;;;;;;;;;;;21.83;50.34;102033.34;2189617;39;115814;-53
2021/06/24 05:23:19;;;;;;;;;;;;;;;21.87;50.64;102036.41;2190413;39;115444;-53
2021/06/24 05:24:51;;;;;;;;;;;;;;;21.87;50.50;102031.63;2191356;39;115548;-53
2021/06/24 05:26:22;;;;;;;;;;;;;;;21.91;50.57;102031.88;2199273;39;115631;-54
2021/06/24 05:27:54;;;;;;;;;;;;;;;21.94;50.49;102037.78;2198933;39;116039;-53
2021/06/24 05:29:25;;;;;;;;;;;;;;;21.97;50.85;102033.56;2199377;39;115697;-54
2021/06/24 05:30:57;;;;;;;;;;;;;;;22.01;50.81;102029.03;2199466;39;114716;-53
2021/06/24 05:32:29;;;;;;;;;;;;;;;22.04;51.37;102034.06;2196102;39;115581;-53
2021/06/24 05:34:00;;;;;;;;;;;;;;;22.07;51.35;102023.09;2183867;39;115734;-54
2021/06/24 05:35:32;;;;;;;;;;;;;;;22.11;51.04;102028.97;2198552;39;115445;-53
2021/06/24 05:37:04;;;;;;;;;;;;;;;22.14;51.39;102029.22;2191791;39;113875;-53
2021/06/24 05:38:36;;;;;;;;;;;;;;;22.18;51.05;102023.84;2189731;39;113855;-53
2021/06/24 05:40:08;;;;;;;;;;;;;;;22.22;50.79;102029.72;2196956;39;113905;-54
2021/06/24 05:41:40;;;;;;;;;;;;;;;22.26;50.32;102025.19;2191999;39;114003;-53
2021/06/24 05:43:12;;;;;;;;;;;;;;;22.28;50.47;102023.75;2197108;39;113762;-54
2021/06/24 05:44:44;;;;;;;;;;;;;;;22.31;50.09;102019.50;2186210;39;114118;-53
2021/06/24 05:46:16;;;;;;;;;;;;;;;22.34;50.23;102022.59;2190328;39;114063;-53
2021/06/24 05:47:48;;;;;;;;;;;;;;;22.37;50.04;102021.16;2183526;39;113722;-53
2021/06/24 05:49:20;;;;;;;;;;;;;;;22.40;49.89;102027.03;2192817;39;113580;-53
2021/06/24 05:50:52;;;;;;;;;;;;;;;22.42;49.99;102029.56;2191660;39;114310;-54
2021/06/24 05:52:23;;;;;;;;;;;;;;;22.45;49.76;102029.81;2189251;39;113761;-53
2021/06/24 05:53:55;;;;;;;;;;;;;;;22.47;49.58;102027.53;2190573;39;114323;-53
2021/06/24 05:57:02;;;;;;;;;;;;;;;22.51;49.38;102024.97;2198795;39;113740;-53
2021/06/24 05:58:34;;;;;;;;;;;;;;;22.55;49.23;102026.91;2201602;39;113862;-53
2021/06/24 06:00:06;;;;;;;;;;;;;;;22.57;49.25;102027.47;2199007;39;115614;-53
2021/06/24 06:01:42;;;;;;;;;;;;;;;22.59;49.38;102022.34;2185549;39;115128;-53
2021/06/24 06:03:14;;;;;;;;;;;;;;;22.61;49.26;102016.44;2195830;39;115631;-53
2021/06/24 06:04:46;;;;;;;;;;;;;;;22.63;49.26;102020.63;2191177;39;115795;-53
2021/06/24 06:06:17;;;;;;;;;;;;;;;22.66;48.95;102021.16;2186008;39;114105;-54
2021/06/24 06:07:49;;;;;;;;;;;;;;;22.67;48.94;102011.59;2196978;39;114893;-53
2021/06/24 06:09:21;;;;;;;;;;;;;;;22.68;48.87;102014.09;2198853;39;115034;-53
2021/06/24 06:10:53;;;;;;;;;;;;;;;22.70;48.77;102014.69;2193519;39;114856;-53
2021/06/24 06:12:29;;;;;;;;;;;;;;;22.73;49.10;102018.88;2190781;39;115148;-53
2021/06/24 06:14:01;;;;;;;;;;;;;;;22.75;49.62;102019.41;2190328;39;113910;-61
2021/06/24 06:15:33;;;;;;;;;;;;;;;22.75;49.31;102014.63;2189928;39;116206;-53
2021/06/24 06:17:05;;;;;;;;;;;;;;;22.77;49.39;102014.31;2190495;39;115641;-53
2021/06/24 06:18:37;;;;;;;;;;;;;;;22.78;49.40;102016.00;2196338;39;114866;-53
2021/06/24 06:20:09;;;;;;;;;;;;;;;22.80;49.49;102019.38;2199737;39;115142;-53
2021/06/24 06:21:41;;;;;;;;;;;;;;;22.81;49.44;102009.75;2197403;39;115538;-54
2021/06/24 06:23:13;;;;;;;;;;;;;;;22.83;49.57;102010.31;2192062;39;115729;-53
2021/06/24 06:24:45;;;;;;;;;;;;;;;22.82;49.80;102003.84;2192043;39;115779;-53
2021/06/24 06:26:16;;;;;;;;;;;;;;;22.84;49.59;102003.53;2195410;39;114680;-53
2021/06/24 06:27:48;;;;;;;;;;;;;;;22.85;49.75;102002.41;2197432;39;115722;-53
2021/06/24 06:29:20;;;;;;;;;;;;;;;22.86;49.52;102001.25;2190160;39;115955;-53
2021/06/24 06:30:53;;;;;;;;;;;;;;;22.84;49.53;101998.75;2198131;39;115489;-53
2021/06/24 06:32:25;;;;;;;;;;;;;;;22.86;49.39;102004.06;2185364;39;115843;-53
2021/06/24 06:33:57;;;;;;;;;;;;;;;22.87;49.52;101997.31;2193729;39;115948;-53
2021/06/24 06:35:30;;;;;;;;;;;;;;;22.88;49.33;102002.66;2197724;39;115997;-53
2021/06/24 06:37:02;;;;;;;;;;;;;;;22.89;49.31;102000.69;2198248;39;116005;-53
2021/06/24 06:38:35;;;;;;;;;;;;;;;22.89;49.29;101997.84;2190992;39;115482;-53
2021/06/24 06:40:07;;;;;;;;;;;;;;;22.90;49.16;101994.72;2189445;39;115484;-53
2021/06/24 06:41:39;;;;;;;;;;;;;;;22.89;49.20;101993.06;2194015;39;115974;-53
2021/06/24 06:43:12;;;;;;;;;;;;;;;22.90;49.20;101991.91;2196434;39;113843;-54
2021/06/24 06:44:44;;;;;;;;;;;;;;;22.90;49.03;101988.25;2187772;39;113801;-53
2021/06/24 06:46:15;;;;;;;;;;;;;;;22.90;48.93;101979.78;2191317;39;114266;-53
2021/06/24 06:47:47;;;;;;;;;;;;;;;22.92;49.19;101983.16;2195901;39;113917;-53
2021/06/24 06:49:19;;;;;;;;;;;;;;;22.93;49.09;101991.31;2189834;39;113801;-53
2021/06/24 06:50:51;;;;;;;;;;;;;;;22.94;49.22;101983.72;2188199;39;113911;-54
2021/06/24 06:52:23;;;;;;;;;;;;;;;22.95;48.47;101988.19;2189249;39;113856;-53
2021/06/24 06:53:55;;;;;;;;;;;;;;;22.93;48.25;101987.66;2184305;39;113834;-54
2021/06/24 06:55:28;;;;;;;;;;;;;;;22.88;47.85;101994.19;2197456;39;113702;-53
2021/06/24 06:57:01;;;;;;;;;;;;;;;22.87;47.38;101991.66;2191644;39;113813;-53
2021/06/24 06:58:33;;;;;;;;;;;;;;;22.89;47.32;101995.03;2186209;39;113746;-53
2021/06/24 07:00:07;;;;;;;;;;;;;;;22.85;47.01;101999.59;2195979;39;114198;-53
2021/06/24 07:01:38;;;;;;;;;;;;;;;22.83;46.60;102001.84;2198295;39;113733;-53
2021/06/24 07:03:10;;;;;;;;;;;;;;;22.82;46.67;102000.16;2200573;39;113753;-54
2021/06/24 07:04:42;;;;;;;;;;;;;;;22.81;46.65;102001.31;2192902;39;114894;-54
2021/06/24 07:06:15;;;;;;;;;;;;;;;22.74;45.68;101998.00;2196099;39;115292;-53
2021/06/24 07:07:46;;;;;;;;;;;;;;;22.65;44.87;102002.59;2191363;39;115094;-54
2021/06/24 07:09:18;;;;;;;;;;;;;;;22.62;44.92;102004.84;2189571;39;114811;-53
2021/06/24 07:10:50;;;;;;;;;;;;;;;22.57;44.81;102006.91;2189609;39;114981;-53
2021/06/24 07:12:21;;;;;;;;;;;;;;;22.53;44.45;102000.19;2196120;39;115114;-53
2021/06/24 07:13:53;;;;;;;;;;;;;;;22.48;44.50;102000.22;2183463;39;114073;-53
2021/06/24 07:15:25;;;;;;;;;;;;;;;22.46;44.46;101997.69;2187455;39;114824;-53
2021/06/24 07:16:58;;;;;;;;;;;;;;;22.48;44.45;102000.22;2195662;39;115358;-53
2021/06/24 07:18:29;;;;;;;;;;;;;;;22.43;44.80;101998.28;2198051;39;115009;-53
2021/06/24 07:20:02;;;;;;;;;;;;;;;22.40;44.85;101993.22;2193648;39;114046;-53
2021/06/24 07:21:34;;;;;;;;;;;;;;;22.33;44.76;101992.75;2197002;39;113870;-53
2021/06/24 07:23:05;;;;;;;;;;;;;;;22.36;44.80;101994.13;2197482;39;114042;-54
2021/06/24 07:24:37;;;;;;;;;;;;;;;22.36;44.83;101994.97;2200991;39;115035;-54
2021/06/24 07:26:09;;;;;;;;;;;;;;;22.35;44.87;102003.72;2196332;39;114445;-53
2021/06/24 07:27:44;;;;;;;;;;;;;;;22.33;44.78;101998.38;2191253;39;114903;-54
2021/06/24 07:29:16;;;;;;;;;;;;;;;22.27;44.70;102004.34;2196294;39;115480;-53
2021/06/24 07:30:51;;;;;;;;;;;;;;;22.22;44.70;102004.38;2192292;39;115482;-54
2021/06/24 07:32:23;;;;;;;;;;;;;;;22.17;45.03;102005.25;2193427;39;114841;-53
2021/06/24 07:33:55;;;;;;;;;;;;;;;22.15;45.19;102010.34;2198983;39;115518;-53
2021/06/24 07:35:26;;;;;;;;;;;;;;;22.07;45.42;102011.00;2197325;39;115775;-53
2021/06/24 07:36:59;;;;;;;;;;;;;;;22.06;45.41;102012.97;2191843;39;115530;-53
2021/06/24 07:38:30;;;;;;;;;;;;;;;22.03;45.32;102010.72;2195000;39;115685;-53
2021/06/24 07:40:03;;;;;;;;;;;;;;;22.09;45.45;102011.53;2197984;39;115942;-53
2021/06/24 07:41:35;;;;;;;;;;;;;;;22.02;45.55;102003.44;2197900;39;115514;-53
2021/06/24 07:43:07;;;;;;;;;;;;;;;22.03;45.67;101998.63;2196948;39;114719;-53
2021/06/24 07:44:39;;;;;;;;;;;;;;;22.03;45.71;101998.63;2191054;39;114445;-53
2021/06/24 07:46:11;;;;;;;;;;;;;;;21.98;46.14;101999.53;2196181;39;115896;-53
2021/06/24 07:47:43;;;;;;;;;;;;;;;21.97;45.79;102005.44;2190167;39;115592;-53
2021/06/24 07:49:15;;;;;;;;;;;;;;;21.91;45.98;102006.56;2195789;39;113801;-53